Time;durP1;ratioP1;P1;durP2;ratioP2;P2;SDS_P1;SDS_P2;PMS_P1;PMS_P2;Temp;Humidity;BMP_temperature;BMP_pressure;BME280_temperature;BME280_humidity;BME280_pressure;Samples;Min_cycle;Max_cycle;Signal;HPM_P1;HPM_P2
2022/12/23 00:01:27;;;;;;;11.02;0.77;;;;;;;9.90;88.13;99820.16;5141120;28;20975;-83
2022/12/23 00:03:58;;;;;;;0.93;0.93;;;;;;;9.92;88.17;99818.34;5128884;28;20119;-83
2022/12/23 00:06:28;;;;;;;0.70;0.70;;;;;;;9.91;87.96;99822.75;5140358;28;20045;-82
2022/12/23 00:08:59;;;;;;;0.22;0.22;;;;;;;9.87;88.21;99823.78;5160644;28;20549;-82
2022/12/23 00:11:30;;;;;;;0.20;0.20;;;;;;;9.91;88.20;99821.88;5131641;28;20031;-83
2022/12/23 00:16:49;;;;;;;0.22;0.22;;;;;;;9.88;88.30;99820.25;5156438;28;20030;-83
2022/12/23 00:19:20;;;;;;;0.30;0.30;;;;;;;9.89;88.30;99821.06;5148235;28;20037;-84
2022/12/23 00:21:50;;;;;;;0.20;0.20;;;;;;;9.88;88.31;99827.22;5122855;28;20038;-84
2022/12/23 00:24:21;;;;;;;0.65;0.65;;;;;;;9.86;88.61;99829.06;5137664;28;20070;-83
2022/12/23 00:26:51;;;;;;;0.52;0.45;;;;;;;9.87;88.08;99820.31;5155941;28;20022;-84
2022/12/23 00:29:22;;;;;;;0.95;0.95;;;;;;;9.87;88.40;99822.94;5154710;28;20038;-84
2022/12/23 00:31:52;;;;;;;0.30;0.30;;;;;;;9.89;87.98;99823.69;5137332;28;20042;-84
2022/12/23 00:34:23;;;;;;;1.75;0.80;;;;;;;9.86;88.38;99829.91;5139710;28;20855;-83
2022/12/23 00:36:53;;;;;;;0.22;0.22;;;;;;;9.85;88.96;99833.44;5147515;28;20038;-83
2022/12/23 00:45:15;;;;;;;0.40;0.40;;;;;;;9.91;88.97;99840.22;5143884;28;20136;-83
2022/12/23 00:50:38;;;;;;;0.30;0.30;;;;;;;9.91;89.23;99837.59;5159340;28;20080;-85
2022/12/23 00:53:09;;;;;;;0.20;0.20;;;;;;;9.94;89.05;99842.75;5147095;28;20061;-84
2022/12/23 00:55:39;;;;;;;0.35;0.35;;;;;;;9.88;89.54;99838.56;5153169;28;20065;-83
2022/12/23 00:58:09;;;;;;;0.20;0.20;;;;;;;9.86;89.47;99839.56;5144338;28;20046;-83
2022/12/23 01:06:29;;;;;;;0.40;0.40;;;;;;;9.84;90.17;99847.44;5163110;28;20070;-84
2022/12/23 01:09:00;;;;;;;0.20;0.20;;;;;;;9.87;90.19;99849.13;5152803;28;20636;-83
2022/12/23 01:11:30;;;;;;;0.30;0.30;;;;;;;9.87;90.06;99857.00;5152886;28;20015;-84
2022/12/23 01:14:01;;;;;;;0.43;0.43;;;;;;;9.89;89.72;99855.13;5133939;28;20046;-84
2022/12/23 01:16:31;;;;;;;0.52;0.52;;;;;;;9.86;90.19;99847.41;5139465;28;20104;-84
2022/12/23 01:19:02;;;;;;;0.50;0.50;;;;;;;9.88;89.99;99871.78;5138560;28;20038;-83
2022/12/23 01:21:33;;;;;;;1.55;0.95;;;;;;;9.86;90.37;99871.00;5177348;28;20039;-81
2022/12/23 01:24:03;;;;;;;0.43;0.43;;;;;;;9.83;90.43;99873.72;5155643;28;20045;-81
2022/12/23 01:26:34;;;;;;;0.50;0.50;;;;;;;9.83;90.42;99876.34;5154364;28;20105;-82
2022/12/23 01:29:05;;;;;;;0.20;0.20;;;;;;;9.86;90.21;99881.47;5139338;28;20037;-81
2022/12/23 01:31:35;;;;;;;0.57;0.57;;;;;;;9.83;90.52;99876.34;5135842;28;20038;-82
2022/12/23 01:34:06;;;;;;;0.40;0.40;;;;;;;9.85;90.41;99885.00;5137169;28;20485;-81
2022/12/23 01:36:36;;;;;;;0.20;0.20;;;;;;;9.87;90.75;99883.19;5144288;28;20065;-84
2022/12/23 01:39:07;;;;;;;0.38;0.38;;;;;;;9.84;90.69;99885.91;5149785;28;20031;-82
2022/12/23 01:44:51;;;;;;;0.20;0.20;;;;;;;9.85;91.60;99900.72;5159536;28;20065;-82
2022/12/23 01:47:32;;;;;;;1.45;1.25;;;;;;;9.88;91.82;99900.59;5155419;28;20051;-83
2022/12/23 01:50:05;;;;;;;0.35;0.35;;;;;;;9.84;93.03;99899.00;5155021;28;20094;-82
2022/12/23 01:52:46;;;;;;;1.08;1.02;;;;;;;9.81;93.65;99900.00;5152693;28;20097;-82
2022/12/23 01:55:22;;;;;;;0.50;0.50;;;;;;;9.82;93.40;99900.81;5162187;28;20508;-81
2022/12/23 01:57:59;;;;;;;0.60;0.60;;;;;;;9.85;93.71;99901.56;5155214;28;20492;-81
2022/12/23 02:09:27;;;;;;;0.52;0.52;;;;;;;9.83;92.99;99887.69;5159375;28;20500;-81
2022/12/23 02:12:07;;;;;;;0.57;0.57;;;;;;;9.80;93.84;99889.53;5140710;28;20104;-82
2022/12/23 02:18:07;;;;;;;0.77;0.77;;;;;;;9.86;92.84;99884.09;5157164;28;20042;-82
2022/12/23 02:20:56;;;;;;;5.68;1.33;;;;;;;9.84;93.02;99888.53;5127906;28;20539;-83
2022/12/23 02:23:54;;;;;;;0.30;0.30;;;;;;;9.76;92.88;99892.28;5124146;28;20042;-82
2022/12/23 02:26:39;;;;;;;0.20;0.20;;;;;;;9.75;93.29;99905.47;5152634;28;20035;-81
2022/12/23 02:29:25;;;;;;;0.45;0.45;;;;;;;9.74;93.32;99912.44;5157012;28;20453;-82
2022/12/23 02:32:05;;;;;;;0.30;0.30;;;;;;;9.75;93.24;99921.19;5144880;28;20117;-82
2022/12/23 02:34:57;;;;;;;0.77;0.77;;;;;;;9.75;92.90;99921.19;5146921;28;20034;-82
2022/12/23 02:37:39;;;;;;;1.17;1.10;;;;;;;9.75;92.41;99927.25;5154651;28;20050;-81
2022/12/23 02:40:41;;;;;;;0.63;0.63;;;;;;;9.79;92.56;99937.63;5127913;28;20042;-81
2022/12/23 02:43:16;;;;;;;1.02;0.73;;;;;;;9.81;92.63;99933.19;5143894;28;20054;-82
2022/12/23 02:46:06;;;;;;;0.55;0.55;;;;;;;9.76;92.61;99939.44;5138214;28;20100;-82
2022/12/23 02:48:46;;;;;;;0.60;0.60;;;;;;;9.75;91.64;99932.50;5129466;28;20072;-81
2022/12/23 02:51:21;;;;;;;0.63;0.63;;;;;;;9.73;91.87;99939.56;5142912;28;20022;-83
2022/12/23 02:53:55;;;;;;;0.73;0.47;;;;;;;9.69;91.71;99934.47;5180788;28;20042;-82
2022/12/23 02:56:29;;;;;;;0.30;0.30;;;;;;;9.73;91.37;99941.34;5143827;28;20061;-83
2022/12/23 02:59:11;;;;;;;0.20;0.20;;;;;;;9.72;91.48;99953.56;5161566;28;20045;-84
2022/12/23 03:01:43;;;;;;;0.30;0.30;;;;;;;9.74;91.38;99951.75;5130920;28;20125;-83
2022/12/23 03:04:14;;;;;;;4.28;0.65;;;;;;;9.69;91.64;99969.41;5147500;28;20046;-82
2022/12/23 03:06:53;;;;;;;0.70;0.70;;;;;;;9.73;91.90;99978.84;5156624;28;20074;-84
2022/12/23 03:09:34;;;;;;;0.90;0.75;;;;;;;9.71;91.88;99983.28;5167604;28;20069;-82
2022/12/23 03:12:42;;;;;;;6.22;1.55;;;;;;;9.70;92.27;99984.22;5157904;28;20049;-83
2022/12/23 03:15:19;;;;;;;0.30;0.30;;;;;;;9.69;92.26;99999.97;5158743;28;20053;-84
2022/12/23 03:17:52;;;;;;;0.28;0.28;;;;;;;9.71;92.35;100001.63;5154081;28;20133;-83
2022/12/23 03:20:38;;;;;;;0.57;0.57;;;;;;;9.71;91.75;100004.22;5160905;28;20276;-84
2022/12/23 03:23:43;;;;;;;1.70;1.05;;;;;;;9.69;92.68;100000.84;5163002;28;20061;-83
2022/12/23 03:26:33;;;;;;;0.40;0.40;;;;;;;9.63;93.63;99995.78;5136958;28;20140;-83
2022/12/23 03:29:15;;;;;;;0.40;0.40;;;;;;;9.62;93.65;99981.00;5128684;28;20117;-82
2022/12/23 03:31:46;;;;;;;0.57;0.55;;;;;;;9.69;93.70;99990.34;5155764;28;20046;-83
2022/12/23 03:34:21;;;;;;;0.70;0.70;;;;;;;9.67;94.00;99994.78;5134211;28;20030;-82
2022/12/23 03:36:54;;;;;;;0.32;0.32;;;;;;;9.67;93.55;99991.31;5125288;28;20915;-82
2022/12/23 03:39:31;;;;;;;0.30;0.30;;;;;;;9.68;92.95;99993.00;5127492;28;20026;-83
2022/12/23 03:42:13;;;;;;;1.60;1.10;;;;;;;9.65;93.14;99993.13;5159267;28;20334;-83
2022/12/23 03:44:48;;;;;;;0.65;0.65;;;;;;;9.63;92.98;99985.31;5148889;28;20049;-83
2022/12/23 03:47:37;;;;;;;0.40;0.40;;;;;;;9.68;92.50;99988.66;5154390;28;20042;-83
2022/12/23 03:50:11;;;;;;;0.45;0.45;;;;;;;9.62;92.59;99994.09;5155413;28;20034;-83
2022/12/23 03:53:15;;;;;;;0.63;0.63;;;;;;;9.61;92.32;99988.00;5127480;28;20034;-83
2022/12/23 03:55:52;;;;;;;0.73;0.73;;;;;;;9.61;92.06;99980.13;5150036;28;20666;-81
2022/12/23 03:58:34;;;;;;;0.75;0.75;;;;;;;9.64;91.34;99979.16;5142617;28;20117;-83
2022/12/23 04:01:10;;;;;;;1.40;1.27;;;;;;;9.64;91.31;99971.31;5117947;28;20034;-83
2022/12/23 04:03:50;;;;;;;2.10;0.75;;;;;;;9.64;91.08;99973.94;5126742;28;20047;-82
2022/12/23 04:06:25;;;;;;;0.85;0.85;;;;;;;9.62;90.38;99981.00;5142209;28;20042;-83
2022/12/23 04:08:56;;;;;;;0.30;0.30;;;;;;;9.60;90.22;99980.19;5141088;28;20097;-82
2022/12/23 04:11:28;;;;;;;0.28;0.28;;;;;;;9.60;90.07;99978.41;5125663;28;20062;-83
2022/12/23 04:13:59;;;;;;;1.33;1.10;;;;;;;9.59;90.07;99981.09;5138375;28;20034;-82
2022/12/23 04:16:30;;;;;;;0.20;0.20;;;;;;;9.62;90.33;99978.38;5141433;28;20042;-82
2022/12/23 04:19:00;;;;;;;0.30;0.30;;;;;;;9.58;89.84;99975.03;5143584;28;20023;-84
2022/12/23 04:21:31;;;;;;;0.45;0.40;;;;;;;9.62;89.83;99975.78;5150013;28;20038;-84
2022/12/23 04:24:01;;;;;;;0.38;0.38;;;;;;;9.59;89.53;99978.47;5146729;28;20041;-83
2022/12/23 04:26:31;;;;;;;0.50;0.50;;;;;;;9.60;89.56;99981.03;5131133;28;20038;-83
2022/12/23 04:29:02;;;;;;;0.50;0.50;;;;;;;9.65;89.28;99988.75;5147234;28;20058;-82
2022/12/23 04:31:32;;;;;;;0.40;0.40;;;;;;;9.60;89.76;99993.28;5133954;28;20061;-84
2022/12/23 04:34:03;;;;;;;0.40;0.40;;;;;;;9.64;89.21;99994.88;5143539;28;20031;-83
2022/12/23 04:36:33;;;;;;;0.80;0.80;;;;;;;9.64;88.74;99987.03;5140692;28;20076;-83
2022/12/23 04:39:04;;;;;;;0.28;0.28;;;;;;;9.63;88.85;99979.22;5145687;28;20031;-84
2022/12/23 04:41:34;;;;;;;0.20;0.20;;;;;;;9.60;88.85;99990.69;5151320;28;20050;-82
2022/12/23 04:44:05;;;;;;;0.30;0.30;;;;;;;9.60;88.90;99995.91;5141919;28;20034;-82
2022/12/23 04:46:36;;;;;;;0.40;0.40;;;;;;;9.57;89.57;99999.50;5131208;28;20268;-83
2022/12/23 04:49:07;;;;;;;0.47;0.47;;;;;;;9.58;89.20;100005.56;5123854;28;20116;-83
2022/12/23 04:51:37;;;;;;;0.25;0.25;;;;;;;9.57;89.39;99996.88;5136341;28;20046;-82
2022/12/23 04:54:08;;;;;;;0.30;0.30;;;;;;;9.56;89.23;99994.28;5145806;28;20034;-82
2022/12/23 04:56:38;;;;;;;1.20;1.10;;;;;;;9.55;89.35;99997.81;5133189;28;20070;-82
2022/12/23 04:59:09;;;;;;;0.40;0.40;;;;;;;9.57;89.07;99994.25;5134001;28;20027;-81
2022/12/23 05:01:41;;;;;;;0.70;0.68;;;;;;;9.56;89.04;99997.78;5124055;28;20043;-83
2022/12/23 05:04:11;;;;;;;0.95;0.75;;;;;;;9.55;88.83;99998.69;5127550;28;20038;-81
2022/12/23 05:06:42;;;;;;;0.20;0.20;;;;;;;9.54;88.46;100009.22;5157084;28;20069;-81
2022/12/23 05:09:12;;;;;;;1.17;1.10;;;;;;;9.53;89.15;100010.97;5150843;28;20098;-82
2022/12/23 05:11:43;;;;;;;0.35;0.35;;;;;;;9.55;88.99;100001.31;5142815;28;20038;-82
2022/12/23 05:14:14;;;;;;;4.13;1.33;;;;;;;9.53;88.90;99999.66;5132797;28;20042;-82
2022/12/23 05:16:44;;;;;;;1.92;1.77;;;;;;;9.53;89.23;100000.50;5139816;28;20444;-82
2022/12/23 05:19:15;;;;;;;0.70;0.70;;;;;;;9.54;89.22;100001.38;5151419;28;20058;-82
2022/12/23 05:21:45;;;;;;;0.20;0.20;;;;;;;9.57;89.02;100003.88;5126556;28;20552;-82
2022/12/23 05:24:16;;;;;;;0.38;0.38;;;;;;;9.55;89.49;100000.44;5150228;28;20073;-82
2022/12/23 05:26:47;;;;;;;0.82;0.82;;;;;;;9.49;89.40;100008.50;5162142;28;20586;-81
2022/12/23 05:29:18;;;;;;;0.30;0.30;;;;;;;9.47;89.98;100005.06;5127247;28;20385;-81
2022/12/23 05:31:50;;;;;;;0.68;0.68;;;;;;;9.53;89.88;100002.28;5135856;28;20038;-83
2022/12/23 05:34:21;;;;;;;0.25;0.25;;;;;;;9.50;89.70;99994.50;5162368;28;20093;-82
2022/12/23 05:36:51;;;;;;;0.60;0.60;;;;;;;9.56;89.83;100005.66;5145946;28;20038;-81
2022/12/23 05:39:22;;;;;;;0.40;0.40;;;;;;;9.54;89.60;100012.69;5138902;28;20037;-83
2022/12/23 05:41:52;;;;;;;0.40;0.40;;;;;;;9.56;89.66;100017.88;5140967;28;20054;-83
2022/12/23 05:44:23;;;;;;;5.47;2.40;;;;;;;9.54;89.82;100027.56;5145510;28;20536;-83
2022/12/23 05:46:53;;;;;;;1.55;0.85;;;;;;;9.58;89.27;100029.16;5139116;28;20042;-82
2022/12/23 05:49:25;;;;;;;7.63;1.80;;;;;;;9.52;89.48;100035.44;5135757;28;20042;-84
2022/12/23 05:51:55;;;;;;;0.50;0.50;;;;;;;9.58;89.31;100050.09;5139440;28;20043;-83
2022/12/23 05:54:26;;;;;;;0.63;0.63;;;;;;;9.54;89.24;100040.66;5143425;28;20074;-82
2022/12/23 05:56:56;;;;;;;0.50;0.50;;;;;;;9.58;89.78;100050.09;5142856;28;20065;-82
2022/12/23 05:59:27;;;;;;;5.00;0.60;;;;;;;9.54;89.23;100048.50;5147915;28;20040;-82
2022/12/23 06:01:57;;;;;;;0.90;0.90;;;;;;;9.53;89.58;100046.78;5143642;28;20105;-82
2022/12/23 06:04:28;;;;;;;0.73;0.73;;;;;;;9.53;89.68;100049.41;5146860;28;20044;-82
2022/12/23 06:06:58;;;;;;;0.73;0.73;;;;;;;9.63;88.89;100056.03;5137011;28;20053;-81
2022/12/23 06:09:29;;;;;;;0.50;0.50;;;;;;;9.58;89.38;100060.59;5148021;28;20034;-82
2022/12/23 06:11:59;;;;;;;0.40;0.40;;;;;;;9.58;89.25;100066.69;5140515;28;20081;-82
2022/12/23 06:14:30;;;;;;;2.08;1.27;;;;;;;9.64;88.61;100062.97;5127338;28;20050;-83
2022/12/23 06:17:00;;;;;;;0.98;0.98;;;;;;;9.58;89.34;100055.34;5128576;28;20042;-81
2022/12/23 06:19:31;;;;;;;0.45;0.45;;;;;;;9.57;88.85;100054.50;5132240;28;20121;-81
2022/12/23 06:22:01;;;;;;;0.77;0.77;;;;;;;9.53;88.59;100036.31;5140134;28;20090;-80
2022/12/23 06:24:32;;;;;;;1.60;1.50;;;;;;;9.57;88.64;100043.16;5136659;28;20049;-82
2022/12/23 06:27:03;;;;;;;0.30;0.30;;;;;;;9.59;88.39;100033.47;5138484;28;20053;-81
2022/12/23 06:29:33;;;;;;;0.38;0.38;;;;;;;9.60;88.39;100029.97;5121489;28;20089;-82
2022/12/23 06:32:04;;;;;;;0.68;0.68;;;;;;;9.60;88.73;100032.59;5143834;28;20407;-83
2022/12/23 06:34:34;;;;;;;1.15;1.08;;;;;;;9.65;88.60;100035.03;5134861;28;20046;-83
2022/12/23 06:37:05;;;;;;;0.45;0.45;;;;;;;9.64;88.53;100028.94;5146300;28;20704;-82
2022/12/23 06:39:36;;;;;;;0.95;0.82;;;;;;;9.61;88.64;100029.06;5144077;28;20035;-83
2022/12/23 06:42:06;;;;;;;0.77;0.77;;;;;;;9.68;88.11;100029.69;5143731;28;20043;-83
2022/12/23 06:44:37;;;;;;;0.73;0.73;;;;;;;9.71;87.84;100035.66;5148204;28;20034;-82
2022/12/23 06:47:07;;;;;;;1.00;1.00;;;;;;;9.72;88.05;100036.53;5142873;28;20038;-82
2022/12/23 06:49:38;;;;;;;1.80;0.90;;;;;;;9.66;88.05;100027.13;5131615;28;20099;-82
2022/12/23 06:52:09;;;;;;;0.40;0.40;;;;;;;9.69;87.87;100020.91;5135620;28;20042;-83
2022/12/23 06:54:39;;;;;;;0.70;0.70;;;;;;;9.62;88.16;100012.44;5134291;28;20038;-83
2022/12/23 06:57:09;;;;;;;1.10;1.00;;;;;;;9.65;88.28;100027.19;5130966;28;20038;-84
2022/12/23 06:59:40;;;;;;;0.35;0.35;;;;;;;9.68;88.41;100019.22;5147736;28;20419;-83
2022/12/23 07:02:11;;;;;;;0.68;0.68;;;;;;;9.74;88.51;100024.25;5156008;28;20628;-83
2022/12/23 07:04:41;;;;;;;0.30;0.30;;;;;;;9.66;88.54;100029.75;5143107;28;20034;-83
2022/12/23 07:07:12;;;;;;;0.73;0.73;;;;;;;9.67;88.59;100041.94;5156129;28;20042;-83
2022/12/23 07:09:42;;;;;;;0.20;0.20;;;;;;;9.64;88.69;100049.88;5168647;28;20041;-83
2022/12/23 07:12:13;;;;;;;2.55;2.35;;;;;;;9.68;88.77;100069.84;5143644;28;20038;-84
2022/12/23 07:14:44;;;;;;;0.40;0.40;;;;;;;9.67;88.80;100083.84;5162235;28;20064;-85
2022/12/23 07:17:14;;;;;;;0.60;0.60;;;;;;;9.68;88.93;100085.56;5150915;28;20084;-83
2022/12/23 07:19:44;;;;;;;0.75;0.75;;;;;;;9.69;88.82;100087.28;5154096;28;20034;-83
2022/12/23 07:22:15;;;;;;;0.30;0.30;;;;;;;9.79;88.81;100095.69;5143437;28;20057;-82
2022/12/23 07:24:45;;;;;;;0.60;0.60;;;;;;;9.76;88.37;100090.53;5130721;28;20125;-83
2022/12/23 07:27:16;;;;;;;0.32;0.32;;;;;;;9.73;88.74;100104.59;5128500;28;20073;-83
2022/12/23 07:29:47;;;;;;;0.30;0.30;;;;;;;9.70;88.93;100095.97;5156049;28;20122;-82
2022/12/23 07:32:17;;;;;;;0.60;0.60;;;;;;;9.77;88.88;100094.88;5139781;28;20058;-84
2022/12/23 07:34:47;;;;;;;0.30;0.30;;;;;;;9.69;89.36;100089.03;5124233;28;20626;-84
2022/12/23 07:37:18;;;;;;;0.60;0.60;;;;;;;9.67;89.17;100091.72;5140695;28;20043;-83
2022/12/23 07:39:48;;;;;;;0.60;0.60;;;;;;;9.72;89.42;100094.19;5128939;28;20041;-83
2022/12/23 07:42:19;;;;;;;0.63;0.63;;;;;;;9.74;89.00;100098.44;5142031;28;20038;-83
2022/12/23 07:44:49;;;;;;;0.30;0.30;;;;;;;9.75;89.26;100099.31;5153096;28;20066;-83
2022/12/23 07:47:22;;;;;;;1.48;1.05;;;;;;;9.75;89.06;100094.94;5156001;28;20046;-82
2022/12/23 07:49:52;;;;;;;1.60;1.50;;;;;;;9.74;89.01;100093.22;5155640;28;20033;-83
2022/12/23 07:52:23;;;;;;;0.50;0.50;;;;;;;9.71;89.04;100087.22;5122994;28;20549;-83
2022/12/23 07:54:53;;;;;;;1.05;1.05;;;;;;;9.76;89.11;100082.66;5138783;28;20037;-84
2022/12/23 07:57:24;;;;;;;0.85;0.77;;;;;;;9.72;89.04;100084.53;5155201;28;20030;-84
2022/12/23 07:59:54;;;;;;;0.90;0.88;;;;;;;9.71;89.23;100088.06;5164327;28;20061;-83
2022/12/23 08:02:25;;;;;;;18.13;2.60;;;;;;;9.67;89.58;100090.88;5121829;28;20089;-83
2022/12/23 08:04:56;;;;;;;6.40;1.85;;;;;;;9.69;89.65;100089.03;5142367;28;20030;-83
2022/12/23 08:07:26;;;;;;;0.47;0.47;;;;;;;9.62;89.51;100077.91;5129773;28;20038;-83
2022/12/23 08:09:57;;;;;;;0.63;0.63;;;;;;;9.72;89.56;100076.69;5141824;28;20034;-83
2022/12/23 08:12:27;;;;;;;2.10;2.00;;;;;;;9.69;89.44;100068.94;5139914;28;20073;-82
2022/12/23 08:14:58;;;;;;;0.60;0.60;;;;;;;9.70;89.23;100077.66;5133638;28;20505;-83
2022/12/23 08:17:29;;;;;;;0.45;0.45;;;;;;;9.74;89.58;100080.09;5126092;28;20074;-83
2022/12/23 08:20:00;;;;;;;0.68;0.68;;;;;;;9.70;89.32;100073.28;5141087;28;20123;-83
2022/12/23 08:22:31;;;;;;;0.70;0.70;;;;;;;9.71;89.25;100077.59;5132738;28;20038;-83
2022/12/23 08:25:01;;;;;;;0.52;0.52;;;;;;;9.72;89.74;100074.06;5167992;28;20084;-83
2022/12/23 08:27:32;;;;;;;0.30;0.30;;;;;;;9.79;89.04;100060.78;5155647;28;20057;-84
2022/12/23 08:30:03;;;;;;;0.85;0.85;;;;;;;9.79;89.49;100058.16;5155575;28;20100;-83
2022/12/23 08:32:33;;;;;;;1.52;1.42;;;;;;;9.74;89.17;100059.16;5141666;28;20045;-83
2022/12/23 08:35:05;;;;;;;0.52;0.52;;;;;;;9.81;88.71;100064.16;5119806;28;20027;-83
2022/12/23 08:37:35;;;;;;;0.52;0.52;;;;;;;9.81;89.27;100070.28;5151157;28;20050;-83
2022/12/23 08:40:06;;;;;;;0.40;0.40;;;;;;;9.76;89.19;100062.59;5142833;28;20464;-83
2022/12/23 08:42:37;;;;;;;2.53;1.98;;;;;;;9.80;89.12;100059.84;5140682;28;20058;-82
2022/12/23 08:45:08;;;;;;;0.88;0.88;;;;;;;9.82;88.77;100073.75;5139242;28;20041;-83
2022/12/23 08:47:39;;;;;;;0.60;0.60;;;;;;;9.79;89.21;100076.50;5139720;28;20042;-83
2022/12/23 08:50:10;;;;;;;0.93;0.93;;;;;;;9.85;88.55;100078.91;5142151;28;20033;-83
2022/12/23 08:52:41;;;;;;;0.30;0.30;;;;;;;9.87;88.75;100064.00;5127924;28;20042;-83
2022/12/23 08:55:11;;;;;;;0.30;0.30;;;;;;;9.86;88.61;100064.88;5142056;28;20081;-83
2022/12/23 08:57:42;;;;;;;4.40;1.95;;;;;;;9.88;88.95;100071.78;5139859;28;20027;-83
2022/12/23 09:00:13;;;;;;;0.40;0.40;;;;;;;9.88;89.19;100074.41;5146247;28;20097;-83
2022/12/23 09:02:43;;;;;;;0.40;0.40;;;;;;;9.88;88.74;100073.53;5118731;28;20556;-83
2022/12/23 09:05:14;;;;;;;0.35;0.35;;;;;;;9.91;88.54;100076.94;5143536;28;20030;-83
2022/12/23 09:07:45;;;;;;;0.40;0.40;;;;;;;9.95;88.73;100075.06;5157885;28;20046;-83
2022/12/23 09:10:16;;;;;;;0.80;0.80;;;;;;;9.92;88.72;100069.91;5144944;28;20038;-83
2022/12/23 09:12:46;;;;;;;0.30;0.30;;;;;;;9.88;88.93;100074.41;5129152;28;20042;-83
2022/12/23 09:15:17;;;;;;;0.30;0.30;;;;;;;9.91;88.77;100068.19;5148607;28;20053;-83
2022/12/23 09:17:48;;;;;;;1.00;0.65;;;;;;;9.90;88.67;100061.25;5139858;28;20036;-83
2022/12/23 09:20:18;;;;;;;0.47;0.47;;;;;;;9.95;88.52;100059.34;5124164;28;20034;-83
2022/12/23 09:22:49;;;;;;;0.40;0.40;;;;;;;9.97;88.49;100060.09;5140388;28;20046;-82
2022/12/23 09:25:19;;;;;;;1.48;1.27;;;;;;;10.00;88.42;100052.16;5142760;28;20026;-82
2022/12/23 09:27:50;;;;;;;0.65;0.65;;;;;;;10.04;88.16;100053.75;5128986;28;20501;-84
2022/12/23 09:30:21;;;;;;;0.30;0.30;;;;;;;9.96;88.53;100050.53;5150608;28;20035;-83
2022/12/23 09:32:52;;;;;;;0.30;0.30;;;;;;;10.02;88.24;100052.97;5165691;28;20050;-81
2022/12/23 09:35:23;;;;;;;0.30;0.30;;;;;;;10.05;88.52;100049.38;5137236;28;20496;-82
2022/12/23 09:37:55;;;;;;;0.55;0.55;;;;;;;10.11;88.60;100037.81;5165131;28;20104;-85
2022/12/23 09:40:31;;;;;;;0.68;0.63;;;;;;;10.06;88.45;100041.44;5150101;28;20038;-83
2022/12/23 09:43:18;;;;;;;0.45;0.45;;;;;;;10.01;88.50;100032.91;5158457;28;20057;-82
2022/12/23 09:46:19;;;;;;;0.43;0.43;;;;;;;10.07;88.24;100031.84;5173741;28;20031;-84
2022/12/23 09:49:02;;;;;;;0.30;0.30;;;;;;;10.02;88.70;100015.41;5164100;28;20413;-83
2022/12/23 09:51:32;;;;;;;0.43;0.43;;;;;;;10.07;88.61;100016.94;5148827;28;20109;-81
2022/12/23 09:54:25;;;;;;;1.67;1.58;;;;;;;10.05;88.19;100016.13;5153460;28;20596;-82
2022/12/23 09:57:21;;;;;;;0.75;0.75;;;;;;;10.05;88.83;100005.66;5120321;28;20444;-84
2022/12/23 09:59:58;;;;;;;0.82;0.82;;;;;;;10.07;88.65;100001.22;5162975;28;20030;-82
2022/12/23 10:02:51;;;;;;;0.40;0.40;;;;;;;10.09;88.60;100003.78;5147413;28;20560;-82
2022/12/23 10:05:46;;;;;;;8.20;1.30;;;;;;;10.06;89.20;100002.13;5164009;28;20041;-83
2022/12/23 10:08:35;;;;;;;0.43;0.43;;;;;;;10.11;88.59;99991.47;5160174;28;20054;-82
2022/12/23 10:11:17;;;;;;;0.20;0.20;;;;;;;10.08;88.67;99995.06;5158672;28;20199;-82
2022/12/23 10:13:57;;;;;;;0.53;0.50;;;;;;;10.07;88.25;99977.63;5144894;28;20049;-82
2022/12/23 10:16:38;;;;;;;0.20;0.20;;;;;;;10.16;88.66;99972.97;5158480;28;20138;-84
2022/12/23 10:19:30;;;;;;;0.35;0.35;;;;;;;10.16;88.12;99965.09;5143969;28;20034;-82
2022/12/23 10:22:14;;;;;;;0.40;0.40;;;;;;;10.23;87.76;99958.69;5159437;28;20129;-82
2022/12/23 10:24:46;;;;;;;0.28;0.28;;;;;;;10.16;88.17;99957.22;5145475;28;20030;-84
2022/12/23 10:27:37;;;;;;;1.30;0.63;;;;;;;10.23;88.22;99946.47;5142411;28;20515;-84
2022/12/23 10:30:16;;;;;;;0.60;0.60;;;;;;;10.18;87.95;99935.28;5139070;28;20125;-82
2022/12/23 10:33:04;;;;;;;0.55;0.55;;;;;;;10.20;87.82;99937.88;5128108;28;20084;-83
2022/12/23 10:36:16;;;;;;;0.30;0.30;;;;;;;10.24;88.29;99948.19;5126232;28;20040;-83
2022/12/23 10:38:57;;;;;;;0.82;0.82;;;;;;;10.25;87.79;99943.78;5174421;28;20247;-79
2022/12/23 10:41:40;;;;;;;0.60;0.60;;;;;;;10.27;88.13;99944.56;5151409;28;20046;-81
2022/12/23 10:44:36;;;;;;;0.30;0.30;;;;;;;10.21;87.89;99940.41;5161768;28;20042;-80
2022/12/23 10:47:30;;;;;;;0.50;0.50;;;;;;;10.22;87.92;99941.25;5119977;28;20072;-80
2022/12/23 10:50:45;;;;;;;3.05;1.83;;;;;;;10.26;87.94;99945.50;5141859;28;20096;-80
2022/12/23 10:53:38;;;;;;;0.47;0.47;;;;;;;10.23;87.72;99935.09;5128550;28;20041;-79
2022/12/23 10:56:09;;;;;;;1.17;0.77;;;;;;;10.24;87.97;99934.19;5139437;28;20042;-80
2022/12/23 10:58:42;;;;;;;0.68;0.68;;;;;;;10.25;88.00;99914.94;5145918;28;20710;-80
2022/12/23 11:01:15;;;;;;;0.68;0.68;;;;;;;10.28;88.15;99909.59;5156968;28;20105;-80
2022/12/23 11:04:05;;;;;;;0.38;0.38;;;;;;;10.30;87.92;99897.25;5151313;28;20750;-81
2022/12/23 11:06:42;;;;;;;0.60;0.60;;;;;;;10.28;87.66;99892.97;5150602;28;20106;-80
2022/12/23 11:09:20;;;;;;;0.20;0.20;;;;;;;10.27;87.63;99894.75;5137819;28;20088;-80
2022/12/23 11:12:03;;;;;;;0.52;0.52;;;;;;;10.32;87.17;99891.97;5154690;28;20049;-81
2022/12/23 11:14:49;;;;;;;1.75;0.85;;;;;;;10.35;86.99;99884.81;5139865;28;20458;-81
2022/12/23 11:17:32;;;;;;;0.30;0.30;;;;;;;10.32;87.23;99882.31;5162041;28;20646;-82
2022/12/23 11:20:17;;;;;;;0.87;0.60;;;;;;;10.39;87.28;99883.81;5160896;28;20030;-79
2022/12/23 11:22:52;;;;;;;0.98;0.98;;;;;;;10.33;87.12;99880.56;5148584;28;20297;-81
2022/12/23 11:25:40;;;;;;;0.73;0.73;;;;;;;10.35;87.52;99863.84;5140813;28;20478;-81
2022/12/23 11:28:10;;;;;;;0.40;0.40;;;;;;;10.37;87.52;99858.56;5135836;28;20038;-79
2022/12/23 11:30:52;;;;;;;0.40;0.40;;;;;;;10.43;87.33;99845.19;5146550;28;20810;-78
2022/12/23 11:33:26;;;;;;;0.52;0.52;;;;;;;10.38;87.16;99840.13;5132243;28;20045;-81
2022/12/23 11:36:13;;;;;;;0.40;0.40;;;;;;;10.38;87.30;99837.50;5147184;28;20710;-80
2022/12/23 11:39:08;;;;;;;0.20;0.20;;;;;;;10.44;87.11;99809.34;5176699;28;20083;-79
2022/12/23 11:41:51;;;;;;;0.40;0.40;;;;;;;10.37;87.12;99806.97;5160153;28;20101;-78
2022/12/23 11:44:21;;;;;;;0.40;0.40;;;;;;;10.36;87.02;99802.63;5165358;28;20034;-79
2022/12/23 11:46:52;;;;;;;0.30;0.30;;;;;;;10.42;87.13;99791.03;5135078;28;20053;-80
2022/12/23 11:49:30;;;;;;;0.20;0.20;;;;;;;10.40;86.65;99777.16;5151716;28;20061;-80
2022/12/23 11:52:09;;;;;;;0.30;0.30;;;;;;;10.42;86.46;99770.06;5159519;28;20476;-82
2022/12/23 11:54:39;;;;;;;0.88;0.70;;;;;;;10.37;86.47;99762.38;5144823;28;20053;-81
2022/12/23 11:57:18;;;;;;;1.27;0.60;;;;;;;10.32;86.33;99759.09;5149925;28;20042;-81
2022/12/23 11:59:54;;;;;;;0.50;0.50;;;;;;;10.24;86.27;99758.53;5141362;28;20046;-81
2022/12/23 12:02:38;;;;;;;0.90;0.88;;;;;;;10.27;86.92;99752.31;5141372;28;20120;-81
2022/12/23 12:05:15;;;;;;;0.30;0.30;;;;;;;10.32;86.64;99742.50;5129322;28;20050;-83
2022/12/23 12:07:47;;;;;;;0.40;0.40;;;;;;;10.27;86.45;99742.69;5141181;28;20065;-81
2022/12/23 12:10:24;;;;;;;0.20;0.20;;;;;;;10.28;86.26;99733.91;5156753;28;20034;-83
2022/12/23 12:12:59;;;;;;;0.57;0.57;;;;;;;10.28;86.18;99731.31;5134099;28;20034;-82
2022/12/23 12:15:36;;;;;;;0.30;0.30;;;;;;;10.29;86.41;99724.28;5138608;28;20837;-83
2022/12/23 12:18:11;;;;;;;0.30;0.30;;;;;;;10.30;86.34;99725.97;5142834;28;20074;-81
2022/12/23 12:20:47;;;;;;;1.45;1.00;;;;;;;10.26;86.72;99722.63;5139331;28;21651;-84
2022/12/23 12:23:23;;;;;;;0.55;0.55;;;;;;;10.26;86.60;99713.91;5142230;28;20084;-84
2022/12/23 12:26:22;;;;;;;0.50;0.50;;;;;;;10.25;86.26;99705.19;5131966;28;20428;-82
2022/12/23 12:29:05;;;;;;;0.40;0.40;;;;;;;10.21;86.88;99693.13;5157804;28;20646;-82
2022/12/23 12:31:38;;;;;;;0.30;0.30;;;;;;;10.23;86.63;99684.31;5145752;28;20317;-83
2022/12/23 12:34:24;;;;;;;0.20;0.20;;;;;;;10.22;86.60;99664.25;5130692;28;20042;-84
2022/12/23 12:37:07;;;;;;;0.90;0.90;;;;;;;10.22;86.70;99658.13;5145877;28;20038;-80
2022/12/23 12:39:51;;;;;;;0.40;0.40;;;;;;;10.23;86.87;99660.72;5128168;28;20026;-80
2022/12/23 12:42:39;;;;;;;0.20;0.20;;;;;;;10.29;86.45;99653.47;5142939;28;20073;-83
2022/12/23 12:45:16;;;;;;;0.30;0.30;;;;;;;10.22;86.79;99653.75;5132598;28;20035;-81
2022/12/23 12:48:13;;;;;;;0.77;0.77;;;;;;;10.23;86.92;99644.09;5132872;28;20042;-83